sensor_id;sensor_type;location;lat;lon;timestamp;pressure;altitude;pressure_sealevel;temperature;humidity
13068;BME280;6600;51.362;6.686;2022-07-24T00:01:38;101513.94;;;18.48;98.94
13068;BME280;6600;51.362;6.686;2022-07-24T00:04:04;101514.56;;;18.50;98.99
13068;BME280;6600;51.362;6.686;2022-07-24T00:06:30;101518.81;;;18.46;98.94
13068;BME280;6600;51.362;6.686;2022-07-24T00:08:55;101510.13;;;18.44;99.54
13068;BME280;6600;51.362;6.686;2022-07-24T00:11:21;101511.91;;;18.39;99.91
13068;BME280;6600;51.362;6.686;2022-07-24T00:13:47;101503.53;;;18.40;99.81
13068;BME280;6600;51.362;6.686;2022-07-24T00:16:12;101507.81;;;18.36;100.00
13068;BME280;6600;51.362;6.686;2022-07-24T00:18:37;101496.84;;;18.31;100.00
13068;BME280;6600;51.362;6.686;2022-07-24T00:21:12;101496.28;;;18.29;100.00
13068;BME280;6600;51.362;6.686;2022-07-24T00:23:37;101493.31;;;18.31;100.00
13068;BME280;6600;51.362;6.686;2022-07-24T00:26:03;101493.03;;;18.27;100.00
13068;BME280;6600;51.362;6.686;2022-07-24T00:28:28;101501.31;;;18.37;100.00
13068;BME280;6600;51.362;6.686;2022-07-24T00:30:54;101491.53;;;18.36;99.81
13068;BME280;6600;51.362;6.686;2022-07-24T00:33:19;101496.63;;;18.33;100.00
13068;BME280;6600;51.362;6.686;2022-07-24T00:35:45;101494.16;;;18.31;100.00
13068;BME280;6600;51.362;6.686;2022-07-24T00:38:10;101488.72;;;18.31;100.00
13068;BME280;6600;51.362;6.686;2022-07-24T00:40:36;101486.78;;;18.27;100.00
13068;BME280;6600;51.362;6.686;2022-07-24T00:43:03;101491.88;;;18.23;100.00
13068;BME280;6600;51.362;6.686;2022-07-24T00:45:28;101489.88;;;18.18;100.00
13068;BME280;6600;51.362;6.686;2022-07-24T00:47:55;101491.78;;;18.18;100.00
13068;BME280;6600;51.362;6.686;2022-07-24T00:50:21;101494.25;;;18.20;100.00
13068;BME280;6600;51.362;6.686;2022-07-24T00:52:47;101490.38;;;18.15;100.00
13068;BME280;6600;51.362;6.686;2022-07-24T00:55:12;101493.34;;;18.14;100.00
13068;BME280;6600;51.362;6.686;2022-07-24T00:57:38;101490.88;;;18.12;100.00
13068;BME280;6600;51.362;6.686;2022-07-24T01:00:05;101501.41;;;18.09;100.00
13068;BME280;6600;51.362;6.686;2022-07-24T01:02:31;101503.53;;;18.07;100.00
13068;BME280;6600;51.362;6.686;2022-07-24T01:04:57;101507.31;;;18.06;100.00
13068;BME280;6600;51.362;6.686;2022-07-24T01:07:22;101509.44;;;18.04;100.00
13068;BME280;6600;51.362;6.686;2022-07-24T01:09:49;101501.22;;;17.99;100.00
13068;BME280;6600;51.362;6.686;2022-07-24T01:12:14;101492.00;;;18.00;100.00
13068;BME280;6600;51.362;6.686;2022-07-24T01:14:40;101499.00;;;17.96;100.00
13068;BME280;6600;51.362;6.686;2022-07-24T01:17:05;101498.41;;;17.94;100.00
13068;BME280;6600;51.362;6.686;2022-07-24T01:19:31;101491.84;;;17.90;100.00
13068;BME280;6600;51.362;6.686;2022-07-24T01:21:56;101490.78;;;17.91;100.00
13068;BME280;6600;51.362;6.686;2022-07-24T01:24:22;101490.22;;;17.89;100.00
13068;BME280;6600;51.362;6.686;2022-07-24T01:26:48;101490.72;;;17.86;100.00
13068;BME280;6600;51.362;6.686;2022-07-24T01:29:14;101488.56;;;17.88;100.00
13068;BME280;6600;51.362;6.686;2022-07-24T01:31:40;101492.91;;;17.89;100.00
13068;BME280;6600;51.362;6.686;2022-07-24T01:34:05;101496.13;;;17.86;100.00
13068;BME280;6600;51.362;6.686;2022-07-24T01:36:31;101492.44;;;17.92;100.00
13068;BME280;6600;51.362;6.686;2022-07-24T01:38:57;101484.28;;;17.92;100.00
13068;BME280;6600;51.362;6.686;2022-07-24T01:41:22;101485.91;;;17.93;100.00
13068;BME280;6600;51.362;6.686;2022-07-24T01:43:48;101476.16;;;17.92;100.00
13068;BME280;6600;51.362;6.686;2022-07-24T01:46:13;101479.19;;;17.95;100.00
13068;BME280;6600;51.362;6.686;2022-07-24T01:48:41;101477.00;;;17.92;100.00
13068;BME280;6600;51.362;6.686;2022-07-24T01:51:07;101481.81;;;17.90;100.00
13068;BME280;6600;51.362;6.686;2022-07-24T01:53:32;101483.47;;;17.91;100.00
13068;BME280;6600;51.362;6.686;2022-07-24T01:55:58;101482.06;;;17.89;100.00
13068;BME280;6600;51.362;6.686;2022-07-24T01:58:23;101484.78;;;17.89;100.00
13068;BME280;6600;51.362;6.686;2022-07-24T02:00:49;101481.97;;;17.84;100.00
13068;BME280;6600;51.362;6.686;2022-07-24T02:03:14;101469.97;;;17.80;100.00
13068;BME280;6600;51.362;6.686;2022-07-24T02:05:40;101477.53;;;17.78;100.00
13068;BME280;6600;51.362;6.686;2022-07-24T02:08:06;101473.19;;;17.77;100.00
13068;BME280;6600;51.362;6.686;2022-07-24T02:10:31;101474.22;;;17.76;100.00
13068;BME280;6600;51.362;6.686;2022-07-24T02:12:57;101471.78;;;17.74;100.00
13068;BME280;6600;51.362;6.686;2022-07-24T02:15:22;101469.31;;;17.73;100.00
13068;BME280;6600;51.362;6.686;2022-07-24T02:17:54;101469.06;;;17.74;100.00
13068;BME280;6600;51.362;6.686;2022-07-24T02:20:19;101471.28;;;17.77;100.00
13068;BME280;6600;51.362;6.686;2022-07-24T02:22:45;101465.03;;;17.77;100.00
13068;BME280;6600;51.362;6.686;2022-07-24T02:25:12;101472.69;;;17.80;100.00
13068;BME280;6600;51.362;6.686;2022-07-24T02:27:38;101459.47;;;17.83;100.00
13068;BME280;6600;51.362;6.686;2022-07-24T02:30:05;101460.88;;;17.86;100.00
13068;BME280;6600;51.362;6.686;2022-07-24T02:32:31;101461.44;;;17.88;100.00
13068;BME280;6600;51.362;6.686;2022-07-24T02:34:56;101461.94;;;17.85;100.00
13068;BME280;6600;51.362;6.686;2022-07-24T02:37:21;101458.63;;;17.83;100.00
13068;BME280;6600;51.362;6.686;2022-07-24T02:39:47;101451.81;;;17.80;100.00
13068;BME280;6600;51.362;6.686;2022-07-24T02:42:12;101457.50;;;17.79;100.00
13068;BME280;6600;51.362;6.686;2022-07-24T02:44:37;101456.69;;;17.78;100.00
13068;BME280;6600;51.362;6.686;2022-07-24T02:47:03;101452.88;;;17.79;100.00
13068;BME280;6600;51.362;6.686;2022-07-24T02:49:28;101461.28;;;17.78;100.00
13068;BME280;6600;51.362;6.686;2022-07-24T02:51:54;101452.09;;;17.79;100.00
13068;BME280;6600;51.362;6.686;2022-07-24T02:54:19;101453.16;;;17.78;100.00
13068;BME280;6600;51.362;6.686;2022-07-24T02:56:44;101456.84;;;17.72;100.00
13068;BME280;6600;51.362;6.686;2022-07-24T02:59:10;101455.53;;;17.74;100.00
13068;BME280;6600;51.362;6.686;2022-07-24T03:01:35;101451.41;;;17.72;100.00
13068;BME280;6600;51.362;6.686;2022-07-24T03:04:01;101444.34;;;17.71;100.00
13068;BME280;6600;51.362;6.686;2022-07-24T03:06:26;101445.50;;;17.75;100.00
13068;BME280;6600;51.362;6.686;2022-07-24T03:08:51;101437.94;;;17.77;100.00
13068;BME280;6600;51.362;6.686;2022-07-24T03:11:17;101450.75;;;17.81;100.00
13068;BME280;6600;51.362;6.686;2022-07-24T03:13:42;101448.88;;;17.82;100.00
13068;BME280;6600;51.362;6.686;2022-07-24T03:16:08;101449.13;;;17.80;100.00
13068;BME280;6600;51.362;6.686;2022-07-24T03:18:33;101447.22;;;17.81;100.00
13068;BME280;6600;51.362;6.686;2022-07-24T03:20:59;101446.66;;;17.79;100.00
13068;BME280;6600;51.362;6.686;2022-07-24T03:23:24;101443.34;;;17.77;100.00
13068;BME280;6600;51.362;6.686;2022-07-24T03:25:50;101446.00;;;17.72;100.00
13068;BME280;6600;51.362;6.686;2022-07-24T03:28:15;101451.41;;;17.72;100.00
13068;BME280;6600;51.362;6.686;2022-07-24T03:30:40;101451.41;;;17.72;100.00
13068;BME280;6600;51.362;6.686;2022-07-24T03:33:06;101450.81;;;17.70;100.00
13068;BME280;6600;51.362;6.686;2022-07-24T03:35:31;101452.63;;;17.64;100.00
13068;BME280;6600;51.362;6.686;2022-07-24T03:37:57;101454.19;;;17.60;100.00
13068;BME280;6600;51.362;6.686;2022-07-24T03:40:23;101457.59;;;17.55;100.00
13068;BME280;6600;51.362;6.686;2022-07-24T03:42:48;101454.31;;;17.53;100.00
13068;BME280;6600;51.362;6.686;2022-07-24T03:45:13;101449.88;;;17.47;100.00
13068;BME280;6600;51.362;6.686;2022-07-24T03:47:39;101454.69;;;17.45;100.00
13068;BME280;6600;51.362;6.686;2022-07-24T03:50:04;101453.63;;;17.46;100.00
13068;BME280;6600;51.362;6.686;2022-07-24T03:52:30;101449.88;;;17.47;100.00
13068;BME280;6600;51.362;6.686;2022-07-24T03:54:55;101460.09;;;17.45;100.00
13068;BME280;6600;51.362;6.686;2022-07-24T03:57:21;101458.47;;;17.44;100.00
13068;BME280;6600;51.362;6.686;2022-07-24T03:59:46;101461.19;;;17.44;100.00
13068;BME280;6600;51.362;6.686;2022-07-24T04:02:12;101460.59;;;17.42;100.00
13068;BME280;6600;51.362;6.686;2022-07-24T04:04:37;101468.72;;;17.42;100.00
13068;BME280;6600;51.362;6.686;2022-07-24T04:07:02;101460.38;;;17.44;100.00
13068;BME280;6600;51.362;6.686;2022-07-24T04:09:28;101458.22;;;17.46;100.00
13068;BME280;6600;51.362;6.686;2022-07-24T04:11:53;101456.91;;;17.48;100.00
13068;BME280;6600;51.362;6.686;2022-07-24T04:14:19;101458.91;;;17.53;100.00
13068;BME280;6600;51.362;6.686;2022-07-24T04:16:44;101459.25;;;17.56;100.00
13068;BME280;6600;51.362;6.686;2022-07-24T04:19:09;101462.16;;;17.66;100.00
13068;BME280;6600;51.362;6.686;2022-07-24T04:21:35;101473.09;;;17.72;100.00
13068;BME280;6600;51.362;6.686;2022-07-24T04:24:00;101457.41;;;17.74;100.00
13068;BME280;6600;51.362;6.686;2022-07-24T04:26:26;101455.03;;;17.77;100.00
13068;BME280;6600;51.362;6.686;2022-07-24T04:28:51;101461.84;;;17.80;100.00
13068;BME280;6600;51.362;6.686;2022-07-24T04:31:17;101454.31;;;17.82;100.00
13068;BME280;6600;51.362;6.686;2022-07-24T04:33:42;101456.53;;;17.85;100.00
13068;BME280;6600;51.362;6.686;2022-07-24T04:36:08;101457.41;;;17.90;100.00
13068;BME280;6600;51.362;6.686;2022-07-24T04:38:34;101454.53;;;17.97;100.00
13068;BME280;6600;51.362;6.686;2022-07-24T04:40:59;101456.28;;;18.03;100.00
13068;BME280;6600;51.362;6.686;2022-07-24T04:43:25;101458.56;;;18.11;100.00
13068;BME280;6600;51.362;6.686;2022-07-24T04:45:50;101460.78;;;18.14;100.00
13068;BME280;6600;51.362;6.686;2022-07-24T04:48:15;101452.78;;;18.24;100.00
13068;BME280;6600;51.362;6.686;2022-07-24T04:50:41;101447.47;;;18.29;100.00
13068;BME280;6600;51.362;6.686;2022-07-24T04:53:06;101448.66;;;18.38;100.00
13068;BME280;6600;51.362;6.686;2022-07-24T04:55:31;101451.53;;;18.48;100.00
13068;BME280;6600;51.362;6.686;2022-07-24T04:57:57;101447.28;;;18.52;100.00
13068;BME280;6600;51.362;6.686;2022-07-24T05:00:22;101451.22;;;18.61;100.00
13068;BME280;6600;51.362;6.686;2022-07-24T05:02:47;101460.84;;;18.91;100.00
13068;BME280;6600;51.362;6.686;2022-07-24T05:05:13;101460.22;;;19.32;99.74
13068;BME280;6600;51.362;6.686;2022-07-24T05:07:38;101466.09;;;19.73;96.98
13068;BME280;6600;51.362;6.686;2022-07-24T05:10:04;101472.91;;;20.02;94.58
13068;BME280;6600;51.362;6.686;2022-07-24T05:12:30;101485.06;;;20.26;93.52
13068;BME280;6600;51.362;6.686;2022-07-24T05:14:55;101494.47;;;20.40;91.86
13068;BME280;6600;51.362;6.686;2022-07-24T05:17:21;101488.28;;;20.55;92.10
13068;BME280;6600;51.362;6.686;2022-07-24T05:19:46;101484.78;;;20.59;91.72
13068;BME280;6600;51.362;6.686;2022-07-24T05:22:11;101491.88;;;20.60;92.77
13068;BME280;6600;51.362;6.686;2022-07-24T05:24:37;101488.63;;;20.63;93.23
13068;BME280;6600;51.362;6.686;2022-07-24T05:27:02;101489.69;;;20.62;92.85
13068;BME280;6600;51.362;6.686;2022-07-24T05:29:27;101500.56;;;20.57;93.14
13068;BME280;6600;51.362;6.686;2022-07-24T05:31:53;101504.84;;;20.48;92.61
13068;BME280;6600;51.362;6.686;2022-07-24T05:34:22;101506.13;;;20.36;93.31
13068;BME280;6600;51.362;6.686;2022-07-24T05:36:48;101513.13;;;20.27;94.45
13068;BME280;6600;51.362;6.686;2022-07-24T05:39:14;101512.28;;;20.26;94.87
13068;BME280;6600;51.362;6.686;2022-07-24T05:41:40;101500.81;;;20.24;95.22
13068;BME280;6600;51.362;6.686;2022-07-24T05:44:05;101505.59;;;20.39;95.19
13068;BME280;6600;51.362;6.686;2022-07-24T05:46:30;101503.84;;;20.59;93.68
13068;BME280;6600;51.362;6.686;2022-07-24T05:48:56;101496.91;;;20.84;92.70
13068;BME280;6600;51.362;6.686;2022-07-24T05:51:21;101503.47;;;20.88;91.94
13068;BME280;6600;51.362;6.686;2022-07-24T05:53:47;101493.19;;;21.05;91.73
13068;BME280;6600;51.362;6.686;2022-07-24T05:56:12;101493.84;;;21.22;91.21
13068;BME280;6600;51.362;6.686;2022-07-24T05:58:37;101493.88;;;21.32;90.47
13068;BME280;6600;51.362;6.686;2022-07-24T06:01:03;101489.00;;;21.44;89.55
13068;BME280;6600;51.362;6.686;2022-07-24T06:03:28;101489.53;;;21.46;89.47
13068;BME280;6600;51.362;6.686;2022-07-24T06:05:53;101492.81;;;21.48;89.34
13068;BME280;6600;51.362;6.686;2022-07-24T06:08:19;101491.19;;;21.47;88.66
13068;BME280;6600;51.362;6.686;2022-07-24T06:10:44;101495.25;;;21.40;88.49
13068;BME280;6600;51.362;6.686;2022-07-24T06:13:10;101493.91;;;21.52;89.10
13068;BME280;6600;51.362;6.686;2022-07-24T06:15:35;101492.84;;;21.68;88.26
13068;BME280;6600;51.362;6.686;2022-07-24T06:18:01;101489.03;;;21.70;88.07
13068;BME280;6600;51.362;6.686;2022-07-24T06:20:26;101489.09;;;21.90;87.54
13068;BME280;6600;51.362;6.686;2022-07-24T06:22:51;101486.66;;;21.98;87.40
13068;BME280;6600;51.362;6.686;2022-07-24T06:25:17;101486.38;;;22.15;86.98
13068;BME280;6600;51.362;6.686;2022-07-24T06:27:45;101485.81;;;22.18;86.76
13068;BME280;6600;51.362;6.686;2022-07-24T06:32:39;101487.44;;;22.39;85.19
13068;BME280;6600;51.362;6.686;2022-07-24T06:35:05;101487.72;;;22.43;84.81
13068;BME280;6600;51.362;6.686;2022-07-24T06:37:31;101489.88;;;22.61;84.58
13068;BME280;6600;51.362;6.686;2022-07-24T06:39:56;101491.78;;;22.71;84.53
13068;BME280;6600;51.362;6.686;2022-07-24T06:42:21;101483.56;;;22.81;84.15
13068;BME280;6600;51.362;6.686;2022-07-24T06:44:47;101477.44;;;23.04;81.72
13068;BME280;6600;51.362;6.686;2022-07-24T06:47:12;101482.31;;;23.17;81.27
13068;BME280;6600;51.362;6.686;2022-07-24T06:49:37;101481.47;;;23.27;79.86
13068;BME280;6600;51.362;6.686;2022-07-24T06:52:03;101478.94;;;23.35;80.07
13068;BME280;6600;51.362;6.686;2022-07-24T06:54:28;101468.53;;;23.42;80.38
13068;BME280;6600;51.362;6.686;2022-07-24T06:56:54;101474.00;;;23.42;79.62
13068;BME280;6600;51.362;6.686;2022-07-24T06:59:20;101469.63;;;23.46;78.79
13068;BME280;6600;51.362;6.686;2022-07-24T07:01:45;101479.41;;;23.52;78.58
13068;BME280;6600;51.362;6.686;2022-07-24T07:04:11;101484.56;;;23.59;78.91
13068;BME280;6600;51.362;6.686;2022-07-24T07:06:36;101484.81;;;23.62;78.67
13068;BME280;6600;51.362;6.686;2022-07-24T07:09:01;101479.34;;;23.62;76.77
13068;BME280;6600;51.362;6.686;2022-07-24T07:11:27;101494.69;;;23.63;76.40
13068;BME280;6600;51.362;6.686;2022-07-24T07:13:52;101492.38;;;23.76;77.71
13068;BME280;6600;51.362;6.686;2022-07-24T07:16:18;101498.34;;;23.88;77.09
13068;BME280;6600;51.362;6.686;2022-07-24T07:18:43;101496.09;;;23.95;76.48
13068;BME280;6600;51.362;6.686;2022-07-24T07:21:08;101494.69;;;23.97;77.02
13068;BME280;6600;51.362;6.686;2022-07-24T07:23:34;101496.03;;;24.00;77.12
13068;BME280;6600;51.362;6.686;2022-07-24T07:25:59;101500.97;;;24.03;76.14
13068;BME280;6600;51.362;6.686;2022-07-24T07:28:24;101500.16;;;24.02;76.93
13068;BME280;6600;51.362;6.686;2022-07-24T07:30:50;101494.56;;;24.18;75.76
13068;BME280;6600;51.362;6.686;2022-07-24T07:33:15;101501.44;;;24.10;77.72
13068;BME280;6600;51.362;6.686;2022-07-24T07:35:41;101501.31;;;24.30;75.79
13068;BME280;6600;51.362;6.686;2022-07-24T07:38:06;101500.16;;;24.36;75.54
13068;BME280;6600;51.362;6.686;2022-07-24T07:40:31;101504.22;;;24.39;74.28
13068;BME280;6600;51.362;6.686;2022-07-24T07:42:57;101506.00;;;24.53;75.47
13068;BME280;6600;51.362;6.686;2022-07-24T07:45:22;101507.75;;;24.44;74.72
13068;BME280;6600;51.362;6.686;2022-07-24T07:47:47;101500.44;;;24.63;75.61
13068;BME280;6600;51.362;6.686;2022-07-24T07:50:13;101497.22;;;24.80;75.43
13068;BME280;6600;51.362;6.686;2022-07-24T07:52:39;101499.53;;;24.97;74.37
13068;BME280;6600;51.362;6.686;2022-07-24T07:55:05;101504.53;;;25.13;73.19
13068;BME280;6600;51.362;6.686;2022-07-24T07:57:31;101499.38;;;25.31;73.72
13068;BME280;6600;51.362;6.686;2022-07-24T07:59:56;101486.09;;;25.19;72.64
13068;BME280;6600;51.362;6.686;2022-07-24T08:02:21;101493.75;;;25.41;73.07
13068;BME280;6600;51.362;6.686;2022-07-24T08:04:47;101481.69;;;25.60;72.64
13068;BME280;6600;51.362;6.686;2022-07-24T08:07:12;101488.88;;;25.56;71.36
13068;BME280;6600;51.362;6.686;2022-07-24T08:09:38;101486.81;;;25.67;72.51
13068;BME280;6600;51.362;6.686;2022-07-24T08:12:04;101483.34;;;25.61;71.59
13068;BME280;6600;51.362;6.686;2022-07-24T08:14:30;101475.16;;;25.56;71.51
13068;BME280;6600;51.362;6.686;2022-07-24T08:16:55;101476.06;;;25.71;72.82
13068;BME280;6600;51.362;6.686;2022-07-24T08:19:21;101488.84;;;25.61;72.47
13068;BME280;6600;51.362;6.686;2022-07-24T08:21:47;101485.41;;;25.70;72.27
13068;BME280;6600;51.362;6.686;2022-07-24T08:24:12;101481.38;;;25.81;71.19
13068;BME280;6600;51.362;6.686;2022-07-24T08:26:38;101478.63;;;25.99;72.38
13068;BME280;6600;51.362;6.686;2022-07-24T08:29:04;101478.31;;;26.20;70.69
13068;BME280;6600;51.362;6.686;2022-07-24T08:31:29;101477.31;;;26.29;70.90
13068;BME280;6600;51.362;6.686;2022-07-24T08:33:55;101478.94;;;26.30;70.64
13068;BME280;6600;51.362;6.686;2022-07-24T08:36:21;101482.63;;;26.39;70.00
13068;BME280;6600;51.362;6.686;2022-07-24T08:38:47;101472.34;;;26.58;70.20
13068;BME280;6600;51.362;6.686;2022-07-24T08:41:13;101464.09;;;26.58;69.54
13068;BME280;6600;51.362;6.686;2022-07-24T08:43:38;101469.56;;;26.31;69.24
13068;BME280;6600;51.362;6.686;2022-07-24T08:46:08;101473.06;;;26.50;70.04
13068;BME280;6600;51.362;6.686;2022-07-24T08:48:34;101457.19;;;26.61;69.04
13068;BME280;6600;51.362;6.686;2022-07-24T08:51:00;101467.19;;;26.84;69.20
13068;BME280;6600;51.362;6.686;2022-07-24T08:53:26;101464.75;;;26.83;68.90
13068;BME280;6600;51.362;6.686;2022-07-24T08:55:51;101454.56;;;26.97;67.95
13068;BME280;6600;51.362;6.686;2022-07-24T08:58:17;101455.69;;;26.96;68.81
13068;BME280;6600;51.362;6.686;2022-07-24T09:00:42;101456.81;;;26.95;68.30
13068;BME280;6600;51.362;6.686;2022-07-24T09:03:08;101451.16;;;27.13;67.54
13068;BME280;6600;51.362;6.686;2022-07-24T09:05:33;101440.22;;;27.36;67.71
13068;BME280;6600;51.362;6.686;2022-07-24T09:08:16;101444.72;;;27.32;67.72
13068;BME280;6600;51.362;6.686;2022-07-24T09:10:56;101448.59;;;27.44;67.46
13068;BME280;6600;51.362;6.686;2022-07-24T09:13:25;101430.25;;;27.62;66.78
13068;BME280;6600;51.362;6.686;2022-07-24T09:15:51;101434.91;;;27.75;66.39
13068;BME280;6600;51.362;6.686;2022-07-24T09:18:31;101430.72;;;27.78;65.82
13068;BME280;6600;51.362;6.686;2022-07-24T09:20:58;101433.09;;;27.71;65.23
13068;BME280;6600;51.362;6.686;2022-07-24T09:23:24;101430.94;;;27.90;64.43
13068;BME280;6600;51.362;6.686;2022-07-24T09:25:51;101425.81;;;27.97;65.19
13068;BME280;6600;51.362;6.686;2022-07-24T09:28:17;101425.28;;;28.08;65.08
13068;BME280;6600;51.362;6.686;2022-07-24T09:30:43;101418.84;;;28.22;64.53
13068;BME280;6600;51.362;6.686;2022-07-24T09:35:39;101425.63;;;28.46;62.73
13068;BME280;6600;51.362;6.686;2022-07-24T09:38:10;101421.03;;;28.33;63.12
13068;BME280;6600;51.362;6.686;2022-07-24T09:40:38;101429.78;;;28.35;63.43
13068;BME280;6600;51.362;6.686;2022-07-24T09:43:14;101421.91;;;28.51;62.57
13068;BME280;6600;51.362;6.686;2022-07-24T09:48:20;101424.78;;;28.77;62.52
13068;BME280;6600;51.362;6.686;2022-07-24T09:50:51;101416.31;;;28.73;62.25
13068;BME280;6600;51.362;6.686;2022-07-24T09:53:25;101412.56;;;28.69;62.31
13068;BME280;6600;51.362;6.686;2022-07-24T09:56:06;101410.06;;;28.98;61.38
13068;BME280;6600;51.362;6.686;2022-07-24T09:58:36;101404.72;;;29.02;61.04
13068;BME280;6600;51.362;6.686;2022-07-24T10:01:04;101406.81;;;29.14;61.33
13068;BME280;6600;51.362;6.686;2022-07-24T10:03:32;101404.28;;;29.26;60.60
13068;BME280;6600;51.362;6.686;2022-07-24T10:06:01;101404.75;;;29.36;60.42
13068;BME280;6600;51.362;6.686;2022-07-24T10:08:28;101404.75;;;29.71;61.02
13068;BME280;6600;51.362;6.686;2022-07-24T10:10:54;101405.06;;;29.78;59.15
13068;BME280;6600;51.362;6.686;2022-07-24T10:13:20;101402.63;;;29.85;57.85
13068;BME280;6600;51.362;6.686;2022-07-24T10:18:31;101384.75;;;29.82;58.50
13068;BME280;6600;51.362;6.686;2022-07-24T10:21:07;101392.00;;;30.04;57.64
13068;BME280;6600;51.362;6.686;2022-07-24T10:26:16;101382.97;;;30.33;57.20
13068;BME280;6600;51.362;6.686;2022-07-24T10:28:54;101388.28;;;30.46;57.71
13068;BME280;6600;51.362;6.686;2022-07-24T10:31:24;101383.25;;;30.78;56.26
13068;BME280;6600;51.362;6.686;2022-07-24T10:33:53;101381.63;;;30.77;55.78
13068;BME280;6600;51.362;6.686;2022-07-24T10:36:29;101377.38;;;30.50;55.44
13068;BME280;6600;51.362;6.686;2022-07-24T10:39:05;101376.53;;;30.20;54.77
13068;BME280;6600;51.362;6.686;2022-07-24T10:41:35;101380.19;;;30.41;54.15
13068;BME280;6600;51.362;6.686;2022-07-24T10:44:18;101381.44;;;30.52;55.00
13068;BME280;6600;51.362;6.686;2022-07-24T10:49:44;101374.91;;;30.11;54.29
13068;BME280;6600;51.362;6.686;2022-07-24T10:52:27;101370.53;;;30.10;55.09
13068;BME280;6600;51.362;6.686;2022-07-24T10:58:01;101368.28;;;30.49;52.83
13068;BME280;6600;51.362;6.686;2022-07-24T11:00:36;101356.00;;;30.59;53.05
13068;BME280;6600;51.362;6.686;2022-07-24T11:03:04;101354.28;;;30.75;53.35
13068;BME280;6600;51.362;6.686;2022-07-24T11:05:38;101356.25;;;30.75;52.06
13068;BME280;6600;51.362;6.686;2022-07-24T11:18:35;101354.50;;;30.91;50.19
13068;BME280;6600;51.362;6.686;2022-07-24T11:21:00;101348.84;;;31.08;51.63
13068;BME280;6600;51.362;6.686;2022-07-24T11:23:26;101342.09;;;30.97;51.48
13068;BME280;6600;51.362;6.686;2022-07-24T11:29:23;101337.72;;;30.96;51.72
13068;BME280;6600;51.362;6.686;2022-07-24T11:31:53;101330.00;;;30.51;51.34
13068;BME280;6600;51.362;6.686;2022-07-24T11:34:19;101334.38;;;30.82;52.85
13068;BME280;6600;51.362;6.686;2022-07-24T11:36:48;101322.50;;;30.81;51.87
13068;BME280;6600;51.362;6.686;2022-07-24T11:39:17;101326.00;;;30.70;52.78
13068;BME280;6600;51.362;6.686;2022-07-24T11:41:47;101313.06;;;30.24;53.11
13068;BME280;6600;51.362;6.686;2022-07-24T11:44:14;101320.16;;;30.04;53.56
13068;BME280;6600;51.362;6.686;2022-07-24T11:46:41;101314.84;;;30.28;53.88
13068;BME280;6600;51.362;6.686;2022-07-24T11:49:09;101309.53;;;30.73;53.71
13068;BME280;6600;51.362;6.686;2022-07-24T11:51:45;101309.78;;;30.60;52.19
13068;BME280;6600;51.362;6.686;2022-07-24T11:54:11;101310.22;;;30.91;52.13
13068;BME280;6600;51.362;6.686;2022-07-24T11:56:37;101306.59;;;30.99;51.12
13068;BME280;6600;51.362;6.686;2022-07-24T11:59:03;101306.66;;;31.11;51.40
13068;BME280;6600;51.362;6.686;2022-07-24T12:01:29;101312.78;;;30.96;51.19
13068;BME280;6600;51.362;6.686;2022-07-24T12:03:57;101307.06;;;31.01;52.48
13068;BME280;6600;51.362;6.686;2022-07-24T12:06:23;101301.13;;;31.11;51.23
13068;BME280;6600;51.362;6.686;2022-07-24T12:08:49;101284.59;;;31.02;49.82
13068;BME280;6600;51.362;6.686;2022-07-24T12:11:23;101302.47;;;31.05;51.21
13068;BME280;6600;51.362;6.686;2022-07-24T12:13:50;101299.13;;;31.32;50.47
13068;BME280;6600;51.362;6.686;2022-07-24T12:16:25;101295.66;;;31.23;49.88
13068;BME280;6600;51.362;6.686;2022-07-24T12:18:51;101286.34;;;31.07;50.62
13068;BME280;6600;51.362;6.686;2022-07-24T12:21:17;101285.84;;;31.26;50.63
13068;BME280;6600;51.362;6.686;2022-07-24T12:23:46;101287.09;;;31.16;48.63
13068;BME280;6600;51.362;6.686;2022-07-24T12:26:12;101274.72;;;31.14;49.42
13068;BME280;6600;51.362;6.686;2022-07-24T12:28:37;101276.47;;;31.18;49.51
13068;BME280;6600;51.362;6.686;2022-07-24T12:31:07;101279.41;;;31.34;50.13
13068;BME280;6600;51.362;6.686;2022-07-24T12:33:35;101274.19;;;31.20;50.23
13068;BME280;6600;51.362;6.686;2022-07-24T12:36:11;101268.28;;;31.22;49.28
13068;BME280;6600;51.362;6.686;2022-07-24T12:38:55;101260.06;;;31.13;50.61
13068;BME280;6600;51.362;6.686;2022-07-24T12:41:24;101267.16;;;31.35;49.95
13068;BME280;6600;51.362;6.686;2022-07-24T12:44:00;101267.13;;;31.55;49.03
13068;BME280;6600;51.362;6.686;2022-07-24T12:46:35;101256.25;;;31.50;48.28
13068;BME280;6600;51.362;6.686;2022-07-24T12:54:35;101251.94;;;31.74;48.93
13068;BME280;6600;51.362;6.686;2022-07-24T12:57:11;101245.25;;;31.75;48.63
13068;BME280;6600;51.362;6.686;2022-07-24T12:59:42;101238.44;;;31.84;49.78
13068;BME280;6600;51.362;6.686;2022-07-24T13:02:23;101235.53;;;31.81;48.21
13068;BME280;6600;51.362;6.686;2022-07-24T13:04:54;101229.06;;;31.77;48.52
13068;BME280;6600;51.362;6.686;2022-07-24T13:07:21;101229.31;;;31.96;48.59
13068;BME280;6600;51.362;6.686;2022-07-24T13:09:48;101228.63;;;32.11;48.01
13068;BME280;6600;51.362;6.686;2022-07-24T13:12:14;101221.22;;;32.15;48.27
13068;BME280;6600;51.362;6.686;2022-07-24T13:14:40;101214.06;;;32.02;48.02
13068;BME280;6600;51.362;6.686;2022-07-24T13:17:08;101207.84;;;32.05;47.12
13068;BME280;6600;51.362;6.686;2022-07-24T13:19:36;101205.75;;;32.02;47.26
13068;BME280;6600;51.362;6.686;2022-07-24T13:22:02;101204.13;;;32.01;46.49
13068;BME280;6600;51.362;6.686;2022-07-24T13:24:28;101214.06;;;31.78;46.66
13068;BME280;6600;51.362;6.686;2022-07-24T13:26:55;101200.91;;;31.99;46.95
13068;BME280;6600;51.362;6.686;2022-07-24T13:29:21;101195.59;;;32.06;45.46
13068;BME280;6600;51.362;6.686;2022-07-24T13:31:46;101200.19;;;32.14;46.39
13068;BME280;6600;51.362;6.686;2022-07-24T13:34:12;101188.66;;;32.12;46.26